createdAt,value
2022-08-23T00:00:12.975Z,101298.94
2022-08-23T00:02:43.627Z,101301.34
2022-08-23T00:05:13.448Z,101280.34
2022-08-23T00:07:45.530Z,101296.50
2022-08-23T00:10:17.392Z,101295.22
2022-08-23T00:12:47.562Z,101293.22
2022-08-23T00:15:20.772Z,101295.53
2022-08-23T00:17:49.318Z,101291.81
2022-08-23T00:20:20.745Z,101290.75
2022-08-23T00:22:49.201Z,101288.06
2022-08-23T00:25:18.903Z,101289.13
2022-08-23T00:27:47.314Z,101283.53
2022-08-23T00:30:19.081Z,101288.31
2022-08-23T00:32:47.429Z,101292.31
2022-08-23T00:35:23.732Z,101290.41
2022-08-23T00:38:32.222Z,101296.66
2022-08-23T00:40:47.509Z,101286.94
2022-08-23T00:43:38.993Z,101289.19
2022-08-23T00:46:37.175Z,101290.84
2022-08-23T00:49:10.649Z,101184.78
2022-08-23T00:51:52.824Z,101260.41
2022-08-23T00:54:24.657Z,101275.75
2022-08-23T00:56:55.056Z,101280.38
2022-08-23T00:59:24.635Z,101278.88
2022-08-23T01:01:54.847Z,101276.53
2022-08-23T01:04:23.794Z,101282.22
2022-08-23T01:06:59.353Z,101278.22
2022-08-23T01:09:27.915Z,101271.31
2022-08-23T01:12:04.543Z,101279.81
2022-08-23T01:14:37.872Z,101280.34
2022-08-23T01:17:14.147Z,101280.34
2022-08-23T01:19:48.779Z,101274.41
2022-08-23T01:22:22.170Z,101279.63
2022-08-23T01:25:07.372Z,101256.03
2022-08-23T01:27:43.172Z,101278.13
2022-08-23T01:30:19.645Z,101288.63
2022-08-23T01:32:53.258Z,101278.22
2022-08-23T01:38:00.261Z,101274.28
2022-08-23T01:40:32.547Z,101268.34
2022-08-23T01:43:02.464Z,101259.38
2022-08-23T01:45:32.462Z,101279.56
2022-08-23T01:48:02.727Z,101276.38
2022-08-23T01:50:32.211Z,101269.25
2022-08-23T01:53:01.506Z,101261.47
2022-08-23T01:55:32.626Z,101269.09
2022-08-23T01:58:02.642Z,101231.16
2022-08-23T02:00:35.641Z,101257.31
2022-08-23T02:03:05.861Z,101248.78
2022-08-23T02:05:37.222Z,101235.19
2022-08-23T02:08:21.326Z,101249.72
2022-08-23T02:10:53.285Z,101240.31
2022-08-23T02:13:22.172Z,101255.25
2022-08-23T02:15:51.972Z,101243.75
2022-08-23T02:18:22.414Z,101258.16
2022-08-23T02:20:54.652Z,101255.78
2022-08-23T02:23:24.020Z,101249.78
2022-08-23T02:25:54.434Z,101273.84
2022-08-23T02:28:25.403Z,101263.28
2022-08-23T02:30:53.856Z,101276.63
2022-08-23T02:33:22.268Z,101267.09
2022-08-23T02:35:50.835Z,101270.97
2022-08-23T02:38:19.549Z,101271.59
2022-08-23T02:40:52.912Z,101268.53
2022-08-23T02:43:36.442Z,101271.75
2022-08-23T02:46:07.776Z,101268.13
2022-08-23T02:48:37.630Z,101279.63
2022-08-23T02:51:09.705Z,101279.47
2022-08-23T02:53:38.603Z,101245.53
2022-08-23T02:56:13.082Z,101198.69
2022-08-23T02:58:54.037Z,101278.53
2022-08-23T03:01:28.566Z,101283.22
2022-08-23T03:04:01.828Z,101280.75
2022-08-23T03:06:32.175Z,101277.88
2022-08-23T03:09:00.915Z,101288.69
2022-08-23T03:11:29.503Z,101290.22
2022-08-23T03:14:00.674Z,101292.94
2022-08-23T03:16:30.459Z,101285.47
2022-08-23T03:18:58.906Z,101276.88
2022-08-23T03:21:27.210Z,101293.31
2022-08-23T03:23:56.862Z,101282.34
2022-08-23T03:26:25.760Z,101273.03
2022-08-23T03:28:54.955Z,101281.31
2022-08-23T03:31:29.597Z,101287.53
2022-08-23T03:34:08.007Z,101281.50
2022-08-23T03:36:36.994Z,101277.81
2022-08-23T03:39:07.471Z,101278.09
2022-08-23T03:41:35.880Z,101280.28
2022-08-23T03:44:05.122Z,101283.50
2022-08-23T03:46:38.357Z,101287.00
2022-08-23T03:49:07.108Z,101289.16
2022-08-23T03:51:55.972Z,101294.47
2022-08-23T03:54:24.997Z,101301.16
2022-08-23T03:57:00.443Z,101295.94
2022-08-23T03:59:34.078Z,101301.16
2022-08-23T04:02:06.354Z,101302.63
2022-08-23T04:04:34.959Z,101302.34
2022-08-23T04:07:26.755Z,101294.63
2022-08-23T04:09:57.531Z,101294.47
2022-08-23T04:12:28.820Z,101305.84
2022-08-23T04:14:57.470Z,101300.16
2022-08-23T04:17:32.099Z,101307.75
2022-08-23T04:20:01.245Z,101314.16
2022-08-23T04:22:30.875Z,101319.72
2022-08-23T04:24:59.341Z,101314.88
2022-08-23T04:27:28.004Z,101316.34
2022-08-23T04:29:56.466Z,101308.63
2022-08-23T04:32:28.365Z,101308.34
2022-08-23T04:34:58.635Z,101303.88
2022-08-23T04:37:28.122Z,101298.84
2022-08-23T04:40:14.481Z,101292.09
2022-08-23T04:42:44.284Z,101290.16
2022-08-23T04:45:14.211Z,101290.94
2022-08-23T04:47:47.722Z,101299.69
2022-08-23T04:50:17.500Z,101304.06
2022-08-23T04:53:12.927Z,101297.44
2022-08-23T04:55:52.447Z,101323.69
2022-08-23T04:58:21.551Z,101320.88
2022-08-23T05:00:51.812Z,101322.63
2022-08-23T05:03:28.098Z,101306.13
2022-08-23T05:05:58.278Z,101318.63
2022-08-23T05:08:33.530Z,101324.19
2022-08-23T05:11:03.086Z,101247.91
2022-08-23T05:13:31.751Z,101227.19
2022-08-23T05:16:05.236Z,101329.44
2022-08-23T05:18:38.392Z,101329.09
2022-08-23T05:21:07.975Z,101334.13
2022-08-23T05:23:36.761Z,101328.22
2022-08-23T05:26:10.032Z,101332.53
2022-08-23T05:28:45.130Z,101337.06
2022-08-23T05:31:21.118Z,101325.97
2022-08-23T05:33:56.909Z,101345.75
2022-08-23T05:36:38.977Z,101337.94
2022-08-23T05:39:25.739Z,101236.13
2022-08-23T05:42:07.862Z,101341.78
2022-08-23T05:44:37.222Z,101353.13
2022-08-23T05:47:10.402Z,101327.34
2022-08-23T05:49:46.152Z,101357.28
2022-08-23T05:52:15.563Z,101354.84
2022-08-23T05:54:45.355Z,101366.16
2022-08-23T05:57:43.103Z,101367.25
2022-08-23T06:00:14.911Z,101353.66
2022-08-23T06:02:51.584Z,101365.97
2022-08-23T06:05:23.215Z,101343.72
2022-08-23T06:07:52.382Z,101357.84
2022-08-23T06:10:23.729Z,101357.06
2022-08-23T06:12:58.815Z,101342.31
2022-08-23T06:15:27.071Z,101361.38
2022-08-23T06:17:55.443Z,101371.41
2022-08-23T06:20:25.273Z,101358.19
2022-08-23T06:23:02.162Z,101364.63
2022-08-23T06:25:32.249Z,101357.22
2022-08-23T06:28:09.516Z,101373.56
2022-08-23T06:30:40.167Z,101374.47
2022-08-23T06:33:19.240Z,101370.50
2022-08-23T06:35:51.022Z,101366.94
2022-08-23T06:38:27.122Z,101374.91
2022-08-23T06:41:13.972Z,101375.09
2022-08-23T06:44:01.850Z,101374.41
2022-08-23T06:46:49.365Z,101371.84
2022-08-23T06:49:18.330Z,101364.97
2022-08-23T06:51:52.357Z,101381.25
2022-08-23T06:54:34.707Z,101381.81
2022-08-23T06:57:24.236Z,101387.16
2022-08-23T07:00:22.272Z,101274.63
2022-08-23T07:03:09.894Z,101393.63
2022-08-23T07:05:56.520Z,101393.00
2022-08-23T07:08:31.944Z,101397.78
2022-08-23T07:11:00.308Z,101399.72
2022-08-23T07:13:28.736Z,101394.69
2022-08-23T07:16:00.234Z,101391.00
2022-08-23T07:18:29.226Z,101405.00
2022-08-23T07:20:58.883Z,101399.50
2022-08-23T07:23:28.301Z,101402.22
2022-08-23T07:25:59.227Z,101400.09
2022-08-23T07:28:30.971Z,101396.69
2022-08-23T07:31:13.098Z,101404.94
2022-08-23T07:33:44.696Z,101396.09
2022-08-23T07:36:19.922Z,101400.84
2022-08-23T07:38:51.460Z,101406.50
2022-08-23T07:41:22.185Z,101382.50
2022-08-23T07:43:50.992Z,101411.13
2022-08-23T07:46:20.984Z,101392.81
2022-08-23T07:48:54.290Z,101412.50
2022-08-23T07:51:33.262Z,101426.03
2022-08-23T07:54:03.594Z,101419.00
2022-08-23T07:56:33.605Z,101424.81
2022-08-23T07:59:15.305Z,101354.66
2022-08-23T08:02:03.382Z,101418.72
2022-08-23T08:04:31.993Z,101438.31
2022-08-23T08:07:18.202Z,101442.16
2022-08-23T08:09:50.795Z,101445.69
2022-08-23T08:12:20.914Z,101449.63
2022-08-23T08:14:53.463Z,101449.19
2022-08-23T08:17:27.639Z,101387.19
2022-08-23T08:20:28.272Z,101448.97
2022-08-23T08:23:15.383Z,101449.19
2022-08-23T08:26:12.422Z,101458.78
2022-08-23T08:28:53.236Z,101461.16
2022-08-23T08:31:21.605Z,101461.47
2022-08-23T08:33:50.077Z,101447.31
2022-08-23T08:36:41.800Z,101458.84
2022-08-23T08:39:18.712Z,101458.81
2022-08-23T08:42:04.661Z,101453.56
2022-08-23T08:44:46.036Z,101455.41
2022-08-23T08:47:22.781Z,101455.41
2022-08-23T08:49:59.150Z,101462.22
2022-08-23T08:52:32.250Z,101465.03
2022-08-23T08:55:14.182Z,101470.00
2022-08-23T08:57:47.920Z,101458.34
2022-08-23T09:00:23.366Z,101451.69
2022-08-23T09:02:53.087Z,101468.34
2022-08-23T09:05:27.674Z,101472.97
2022-08-23T09:08:13.379Z,101469.03
2022-08-23T09:10:52.931Z,101478.97
2022-08-23T09:13:53.542Z,101466.25
2022-08-23T09:16:37.366Z,101478.38
2022-08-23T09:19:07.360Z,101479.16
2022-08-23T09:21:45.770Z,101478.13
2022-08-23T09:24:14.971Z,101473.88
2022-08-23T09:27:02.264Z,101408.91
2022-08-23T09:29:33.091Z,101477.38
2022-08-23T09:32:06.661Z,101483.16
2022-08-23T09:34:43.672Z,101464.84
2022-08-23T09:37:25.179Z,101476.09
2022-08-23T09:40:16.428Z,101470.19
2022-08-23T09:42:47.415Z,101478.25
2022-08-23T09:45:33.122Z,101464.97
2022-08-23T09:48:06.183Z,101472.69
2022-08-23T09:50:43.338Z,101468.41
2022-08-23T09:53:15.707Z,101477.03
2022-08-23T09:55:51.333Z,101473.19
2022-08-23T09:58:36.842Z,101477.59
2022-08-23T10:01:13.909Z,101478.88
2022-08-23T10:03:47.597Z,101476.59
2022-08-23T10:06:34.130Z,101468.59
2022-08-23T10:09:08.247Z,101466.63
2022-08-23T10:11:44.923Z,101404.56
2022-08-23T10:14:15.627Z,101460.50
2022-08-23T10:17:00.479Z,101469.38
2022-08-23T10:19:43.787Z,101459.75
2022-08-23T10:22:20.820Z,101462.94
2022-08-23T10:25:14.292Z,101454.03
2022-08-23T10:28:07.381Z,101455.72
2022-08-23T10:30:47.112Z,101454.72
2022-08-23T10:33:23.538Z,101466.19
2022-08-23T10:36:15.902Z,101466.13
2022-08-23T10:38:51.862Z,101459.97
2022-08-23T10:41:41.693Z,101471.50
2022-08-23T10:44:26.892Z,101473.97
2022-08-23T10:47:12.277Z,101463.31
2022-08-23T10:49:43.398Z,101467.63
2022-08-23T10:52:22.004Z,101449.81
2022-08-23T10:55:01.069Z,101457.88
2022-08-23T10:57:36.764Z,101467.31
2022-08-23T11:00:10.747Z,101467.22
2022-08-23T11:02:49.659Z,101456.03
2022-08-23T11:05:36.331Z,101456.75
2022-08-23T11:08:36.719Z,101464.09
2022-08-23T11:11:43.200Z,101469.41
2022-08-23T11:14:27.281Z,101466.41
2022-08-23T11:17:00.574Z,101384.44
2022-08-23T11:19:52.477Z,101468.44
2022-08-23T11:22:25.830Z,101465.00
2022-08-23T11:25:03.154Z,101471.66
2022-08-23T11:27:42.682Z,101476.41
2022-08-23T11:30:50.775Z,101460.97
2022-08-23T11:33:28.544Z,101463.84
2022-08-23T11:36:21.849Z,101482.50
2022-08-23T11:39:19.523Z,101490.34
2022-08-23T11:42:09.882Z,101483.72
2022-08-23T11:44:43.210Z,101450.78
2022-08-23T11:47:15.438Z,101483.88
2022-08-23T11:50:21.218Z,101481.47
2022-08-23T11:53:11.874Z,101483.59
2022-08-23T11:56:15.335Z,101481.75
2022-08-23T11:59:22.981Z,101472.53
2022-08-23T12:01:52.825Z,101463.28
2022-08-23T12:04:37.549Z,101477.88
2022-08-23T12:07:12.809Z,101480.16
2022-08-23T12:09:57.908Z,101475.91
2022-08-23T12:12:39.253Z,101414.19
2022-08-23T12:15:13.192Z,101474.50
2022-08-23T12:18:17.425Z,101481.19
2022-08-23T12:20:50.184Z,101450.19
2022-08-23T12:23:21.901Z,101484.19
2022-08-23T12:26:07.275Z,101476.34
2022-08-23T12:28:45.397Z,101447.28
2022-08-23T12:31:26.878Z,101481.81
2022-08-23T12:34:19.698Z,101487.31
2022-08-23T12:36:59.577Z,101463.66
2022-08-23T12:39:33.297Z,101479.56
2022-08-23T12:42:08.267Z,101487.41
2022-08-23T12:44:36.915Z,101486.22
2022-08-23T12:47:15.863Z,101486.09
2022-08-23T12:49:58.112Z,101480.56
2022-08-23T12:52:30.098Z,101475.41
2022-08-23T12:54:59.205Z,101480.97
2022-08-23T12:57:36.079Z,101478.25
2022-08-23T13:00:18.897Z,101458.38
2022-08-23T13:02:56.974Z,101478.63
2022-08-23T13:05:39.120Z,101478.81
2022-08-23T13:08:11.830Z,101469.19
2022-08-23T13:10:43.486Z,101470.88
2022-08-23T13:13:16.033Z,101482.84
2022-08-23T13:15:53.006Z,101473.09
2022-08-23T13:18:32.843Z,101465.63
2022-08-23T13:21:28.758Z,101467.41
2022-08-23T13:24:03.568Z,101469.38
2022-08-23T13:26:40.282Z,101460.09
2022-08-23T13:29:14.219Z,101463.63
2022-08-23T13:32:06.933Z,101457.78
2022-08-23T13:34:47.045Z,101455.09
2022-08-23T13:37:24.520Z,101458.44
2022-08-23T13:39:55.940Z,101462.34
2022-08-23T13:42:36.616Z,101416.94
2022-08-23T13:45:11.238Z,101463.19
2022-08-23T13:47:39.659Z,101463.66
2022-08-23T13:50:18.830Z,101445.56
2022-08-23T13:53:13.027Z,101461.19
2022-08-23T13:55:44.190Z,101466.78
2022-08-23T13:58:15.239Z,101440.97
2022-08-23T14:00:55.064Z,101482.03
2022-08-23T14:03:25.076Z,101460.91
2022-08-23T14:05:55.032Z,101482.59
2022-08-23T14:08:23.476Z,101474.88
2022-08-23T14:10:52.170Z,101487.09
2022-08-23T14:13:22.950Z,101486.50
2022-08-23T14:15:56.763Z,101478.50
2022-08-23T14:18:27.064Z,101480.63
2022-08-23T14:20:57.024Z,101467.41
2022-08-23T14:23:25.381Z,101492.78
2022-08-23T14:25:58.955Z,101497.50
2022-08-23T14:28:31.258Z,101482.72
2022-08-23T14:30:59.929Z,101479.75
2022-08-23T14:33:28.333Z,101471.31
2022-08-23T14:35:58.287Z,101475.47
2022-08-23T14:38:26.748Z,101474.31
2022-08-23T14:40:59.068Z,101471.19
2022-08-23T14:43:28.151Z,101475.34
2022-08-23T14:45:57.047Z,101480.34
2022-08-23T14:48:26.384Z,101471.19
2022-08-23T14:50:57.533Z,101472.28
2022-08-23T14:53:30.891Z,101483.28
2022-08-23T14:56:20.277Z,101480.53
2022-08-23T14:58:47.516Z,101480.78
2022-08-23T15:01:16.335Z,101479.34
2022-08-23T15:03:44.913Z,101472.38
2022-08-23T15:06:16.683Z,101460.06
2022-08-23T15:08:45.930Z,101484.25
2022-08-23T15:14:04.114Z,101471.72
2022-08-23T15:16:33.452Z,101472.25
2022-08-23T15:19:02.047Z,101482.81
2022-08-23T15:21:31.796Z,101480.66
2022-08-23T15:24:00.259Z,101474.44
2022-08-23T15:26:31.307Z,101478.69
2022-08-23T15:29:00.563Z,101470.84
2022-08-23T15:31:29.727Z,101476.97
2022-08-23T15:33:58.227Z,101474.34
2022-08-23T15:36:28.009Z,101476.31
2022-08-23T15:38:57.840Z,101477.72
2022-08-23T15:41:26.180Z,101474.16
2022-08-23T15:43:54.447Z,101476.13
2022-08-23T15:46:24.863Z,101465.84
2022-08-23T15:48:56.288Z,101468.13
2022-08-23T15:51:25.347Z,101442.41
2022-08-23T15:53:53.744Z,101461.03
2022-08-23T15:56:28.631Z,101462.47
2022-08-23T15:58:57.465Z,101458.09
2022-08-23T16:01:28.801Z,101469.31
2022-08-23T16:03:57.340Z,101454.72
2022-08-23T16:06:25.670Z,101468.00
2022-08-23T16:08:54.861Z,101469.00
2022-08-23T16:11:24.846Z,101460.94
2022-08-23T16:13:55.274Z,101465.28
2022-08-23T16:16:28.887Z,101464.97
2022-08-23T16:18:58.433Z,101477.81
2022-08-23T16:21:29.489Z,101469.84
2022-08-23T16:23:59.258Z,101394.47
2022-08-23T16:26:34.862Z,101362.53
2022-08-23T16:29:07.905Z,101496.91
2022-08-23T16:31:39.811Z,101465.84
2022-08-23T16:34:11.778Z,101461.94
2022-08-23T16:36:42.332Z,101469.75
2022-08-23T16:39:12.936Z,101470.31
2022-08-23T16:41:42.600Z,101465.50
2022-08-23T16:44:11.072Z,101472.78
2022-08-23T16:46:42.733Z,101481.31
2022-08-23T16:49:11.259Z,101471.91
2022-08-23T16:51:39.567Z,101471.03
2022-08-23T16:54:08.636Z,101469.59
2022-08-23T16:56:39.595Z,101467.06
2022-08-23T16:59:12.003Z,101469.38
2022-08-23T17:01:52.542Z,101475.28
2022-08-23T17:04:21.911Z,101480.13
2022-08-23T17:06:50.354Z,101476.75
2022-08-23T17:09:18.709Z,101482.22
2022-08-23T17:11:47.665Z,101472.19
2022-08-23T17:14:17.599Z,101476.19
2022-08-23T17:16:47.019Z,101483.47
2022-08-23T17:19:15.913Z,101484.13
2022-08-23T17:21:45.093Z,101485.56
2022-08-23T17:24:13.590Z,101481.31
2022-08-23T17:26:41.913Z,101486.47
2022-08-23T17:29:10.388Z,101489.00
2022-08-23T17:31:40.445Z,101492.00
2022-08-23T17:34:08.867Z,101489.19
2022-08-23T17:36:42.029Z,101498.50
2022-08-23T17:39:18.444Z,101502.44
2022-08-23T17:41:47.090Z,101508.59
2022-08-23T17:44:15.771Z,101511.09
2022-08-23T17:46:49.149Z,101517.50
2022-08-23T17:49:19.609Z,101517.59
2022-08-23T17:51:49.353Z,101527.00
2022-08-23T17:54:18.460Z,101531.66
2022-08-23T17:56:50.432Z,101535.88
2022-08-23T17:59:20.140Z,101538.81
2022-08-23T18:01:49.880Z,101524.34
2022-08-23T18:04:18.302Z,101514.94
2022-08-23T18:06:47.305Z,101542.31
2022-08-23T18:09:16.435Z,101539.72
2022-08-23T18:11:44.932Z,101540.25
2022-08-23T18:14:13.258Z,101544.78
2022-08-23T18:16:44.040Z,101546.72
2022-08-23T18:19:15.529Z,101541.88
2022-08-23T18:21:45.453Z,101519.44
2022-08-23T18:24:14.375Z,101544.97
2022-08-23T18:27:01.314Z,101548.97
2022-08-23T18:29:30.294Z,101546.81
2022-08-23T18:31:58.751Z,101552.16
2022-08-23T18:34:29.455Z,101548.66
2022-08-23T18:36:59.296Z,101557.47
2022-08-23T18:39:31.841Z,101551.19
2022-08-23T18:42:01.336Z,101547.69
2022-08-23T18:44:29.889Z,101550.41
2022-08-23T18:46:58.617Z,101556.34
2022-08-23T18:49:28.471Z,101567.97
2022-08-23T18:51:57.210Z,101564.56
2022-08-23T18:54:25.610Z,101564.50
2022-08-23T18:56:53.988Z,101569.81
2022-08-23T18:59:22.289Z,101574.66
2022-08-23T19:01:51.240Z,101576.78
2022-08-23T19:04:20.252Z,101535.28
2022-08-23T19:06:50.072Z,101578.78
2022-08-23T19:09:23.023Z,101570.22
2022-08-23T19:11:51.336Z,101574.09
2022-08-23T19:14:19.757Z,101580.59
2022-08-23T19:16:48.872Z,101572.47
2022-08-23T19:19:18.720Z,101575.97
2022-08-23T19:21:47.110Z,101589.03
2022-08-23T19:24:17.461Z,101589.22
2022-08-23T19:26:47.577Z,101597.38
2022-08-23T19:29:18.444Z,101590.78
2022-08-23T19:31:48.178Z,101588.44
2022-08-23T19:34:17.708Z,101568.16
2022-08-23T19:36:58.954Z,101591.69
2022-08-23T19:39:30.938Z,101595.44
2022-08-23T19:41:59.898Z,101599.50
2022-08-23T19:44:28.625Z,101597.94
2022-08-23T19:46:57.367Z,101605.78
2022-08-23T19:49:25.983Z,101535.56
2022-08-23T19:51:54.358Z,101612.47
2022-08-23T19:54:22.948Z,101607.75
2022-08-23T19:56:59.768Z,101608.97
2022-08-23T19:59:31.323Z,101609.84
2022-08-23T20:02:00.626Z,101619.72
2022-08-23T20:04:32.183Z,101618.13
2022-08-23T20:07:02.620Z,101536.44
2022-08-23T20:09:33.198Z,101628.53
2022-08-23T20:12:03.265Z,101566.38
2022-08-23T20:14:33.590Z,101625.13
2022-08-23T20:17:04.386Z,101630.47
2022-08-23T20:19:32.779Z,101631.44
2022-08-23T20:22:16.275Z,101623.34
2022-08-23T20:24:51.273Z,101630.03
2022-08-23T20:27:25.447Z,101636.81
2022-08-23T20:30:00.243Z,101624.63
2022-08-23T20:32:29.274Z,101624.09
2022-08-23T20:34:58.279Z,101637.47
2022-08-23T20:37:26.819Z,101640.78
2022-08-23T20:39:55.569Z,101631.41
2022-08-23T20:42:25.405Z,101611.06
2022-08-23T20:44:53.942Z,101637.75
2022-08-23T20:47:22.499Z,101631.22
2022-08-23T20:49:51.063Z,101630.44
2022-08-23T20:52:19.349Z,101622.97
2022-08-23T20:54:47.703Z,101624.06
2022-08-23T20:57:16.073Z,101621.53
2022-08-23T20:59:45.734Z,101621.78
2022-08-23T21:02:14.585Z,101621.22
2022-08-23T21:04:42.963Z,101620.34
2022-08-23T21:07:11.271Z,101624.88
2022-08-23T21:09:39.614Z,101603.13
2022-08-23T21:12:08.665Z,101627.44
2022-08-23T21:14:37.064Z,101609.13
2022-08-23T21:17:07.616Z,101615.41
2022-08-23T21:19:35.753Z,101626.16
2022-08-23T21:22:04.035Z,101628.38
2022-08-23T21:24:32.354Z,101627.66
2022-08-23T21:27:00.620Z,101626.06
2022-08-23T21:29:29.139Z,101628.94
2022-08-23T21:31:57.742Z,101621.94
2022-08-23T21:34:27.577Z,101589.72
2022-08-23T21:36:56.022Z,101619.28
2022-08-23T21:39:24.461Z,101622.00
2022-08-23T21:41:55.699Z,101600.66
2022-08-23T21:44:25.233Z,101616.13
2022-08-23T21:46:53.639Z,101597.84
2022-08-23T21:49:23.162Z,101623.44
2022-08-23T21:51:54.368Z,101617.25
2022-08-23T21:54:24.486Z,101617.06
2022-08-23T21:56:52.814Z,101618.47
2022-08-23T21:59:21.248Z,101619.41
2022-08-23T22:01:50.743Z,101618.47
2022-08-23T22:04:19.145Z,101609.56
2022-08-23T22:06:48.746Z,101618.72
2022-08-23T22:09:25.697Z,101618.47
2022-08-23T22:12:00.801Z,101610.59
2022-08-23T22:14:31.542Z,101609.34
2022-08-23T22:17:00.750Z,101612.63
2022-08-23T22:19:29.431Z,101622.47
2022-08-23T22:21:58.661Z,101614.34
2022-08-23T22:24:28.327Z,101620.25
2022-08-23T22:26:57.113Z,101583.13
2022-08-23T22:29:25.869Z,101607.31
2022-08-23T22:31:54.175Z,101616.03
2022-08-23T22:34:22.619Z,101615.69
2022-08-23T22:36:52.065Z,101616.06
2022-08-23T22:39:21.535Z,101613.81
2022-08-23T22:41:51.662Z,101614.31
2022-08-23T22:44:20.180Z,101611.56
2022-08-23T22:46:48.965Z,101612.84
2022-08-23T22:49:17.516Z,101614.72
2022-08-23T22:51:45.825Z,101580.47
2022-08-23T22:54:17.434Z,101603.50
2022-08-23T22:56:51.598Z,101609.78
2022-08-23T22:59:27.471Z,101603.66
2022-08-23T23:01:58.540Z,101608.09
2022-08-23T23:04:28.293Z,101605.28
2022-08-23T23:06:57.788Z,101613.78
2022-08-23T23:09:26.725Z,101610.69
2022-08-23T23:11:56.850Z,101620.41
2022-08-23T23:14:25.199Z,101616.88
2022-08-23T23:16:54.131Z,101620.94
2022-08-23T23:19:39.956Z,101617.63
2022-08-23T23:22:09.894Z,101624.09
2022-08-23T23:24:40.864Z,101622.03
2022-08-23T23:27:10.704Z,101618.91
2022-08-23T23:29:39.121Z,101623.72
2022-08-23T23:32:07.845Z,101615.41
2022-08-23T23:34:37.954Z,101613.00
2022-08-23T23:37:07.000Z,101616.50
2022-08-23T23:39:35.406Z,101617.31
2022-08-23T23:42:03.786Z,101614.63
2022-08-23T23:44:33.538Z,101615.63
2022-08-23T23:47:02.623Z,101621.75
2022-08-23T23:49:33.662Z,101624.91
2022-08-23T23:52:04.691Z,101621.41
2022-08-23T23:54:34.039Z,101621.69
2022-08-23T23:57:03.693Z,101615.34
2022-08-23T23:59:34.070Z,101626.59
